createdAt,value
2023-04-13T00:02:02.066Z,42.30
2023-04-13T00:04:05.333Z,41.89
2023-04-13T00:06:11.343Z,41.85
2023-04-13T00:08:14.721Z,41.82
2023-04-13T00:10:19.277Z,41.75
2023-04-13T00:12:22.009Z,41.73
2023-04-13T00:14:27.707Z,41.92
2023-04-13T00:16:31.801Z,42.00
2023-04-13T00:18:34.736Z,41.59
2023-04-13T00:20:38.101Z,41.84
2023-04-13T00:22:45.786Z,42.01
2023-04-13T00:24:48.451Z,41.70
2023-04-13T00:26:51.738Z,41.82
2023-04-13T00:28:54.344Z,42.09
2023-04-13T00:30:57.122Z,41.92
2023-04-13T00:33:00.059Z,41.60
2023-04-13T00:35:03.258Z,41.74
2023-04-13T00:37:07.362Z,41.75
2023-04-13T00:39:10.017Z,41.66
2023-04-13T00:41:15.819Z,41.92
2023-04-13T00:43:18.474Z,42.28
2023-04-13T00:45:21.157Z,42.40
2023-04-13T00:47:32.487Z,42.23
2023-04-13T00:49:35.887Z,42.31
2023-04-13T00:51:39.066Z,42.64
2023-04-13T00:53:45.433Z,42.75
2023-04-13T00:55:48.826Z,42.76
2023-04-13T00:57:52.854Z,42.81
2023-04-13T00:59:56.264Z,42.93
2023-04-13T01:02:02.348Z,43.06
2023-04-13T01:04:05.755Z,42.98
2023-04-13T01:06:34.118Z,43.35
2023-04-13T01:08:43.906Z,43.65
2023-04-13T01:10:54.487Z,43.81
2023-04-13T01:13:09.791Z,43.71
2023-04-13T01:15:14.971Z,43.79
2023-04-13T01:17:23.788Z,44.26
2023-04-13T01:19:36.558Z,44.22
2023-04-13T01:21:40.501Z,44.05
2023-04-13T01:23:48.642Z,44.00
2023-04-13T01:25:59.932Z,44.05
2023-04-13T01:28:05.595Z,43.77
2023-04-13T01:30:11.153Z,43.55
2023-04-13T01:32:16.521Z,43.59
2023-04-13T01:34:19.519Z,43.22
2023-04-13T01:36:22.726Z,43.68
2023-04-13T01:38:25.597Z,43.35
2023-04-13T01:40:30.059Z,43.16
2023-04-13T01:42:32.716Z,43.15
2023-04-13T01:44:35.599Z,42.90
2023-04-13T01:46:46.546Z,43.12
2023-04-13T01:48:52.327Z,42.87
2023-04-13T01:51:04.169Z,43.01
2023-04-13T01:53:19.448Z,43.11
2023-04-13T01:55:24.111Z,43.04
2023-04-13T01:57:31.394Z,43.05
2023-04-13T01:59:34.104Z,43.03
2023-04-13T02:01:43.403Z,42.97
2023-04-13T02:03:46.389Z,43.23
2023-04-13T02:05:50.538Z,43.25
2023-04-13T02:07:54.020Z,43.27
2023-04-13T02:09:56.627Z,43.18
2023-04-13T02:11:59.408Z,42.99
2023-04-13T02:14:02.556Z,43.21
2023-04-13T02:16:07.032Z,43.31
2023-04-13T02:18:10.875Z,43.47
2023-04-13T02:20:13.767Z,43.21
2023-04-13T02:22:16.556Z,43.38
2023-04-13T02:24:19.355Z,43.11
2023-04-13T02:26:21.983Z,43.41
2023-04-13T02:28:26.509Z,43.57
2023-04-13T02:30:29.611Z,43.42
2023-04-13T02:32:33.332Z,43.28
2023-04-13T02:34:36.054Z,43.40
2023-04-13T02:36:39.509Z,43.21
2023-04-13T02:38:42.432Z,43.07
2023-04-13T02:40:45.928Z,42.80
2023-04-13T02:42:48.542Z,42.74
2023-04-13T02:44:51.303Z,42.68
2023-04-13T02:46:53.987Z,42.33
2023-04-13T02:48:56.709Z,42.54
2023-04-13T02:50:59.895Z,42.19
2023-04-13T02:53:02.677Z,42.40
2023-04-13T02:55:05.973Z,42.94
2023-04-13T02:57:10.828Z,43.46
2023-04-13T02:59:14.908Z,43.33
2023-04-13T03:01:17.630Z,43.12
2023-04-13T03:03:20.628Z,43.00
2023-04-13T03:05:23.373Z,43.22
2023-04-13T03:07:26.184Z,43.35
2023-04-13T03:09:29.307Z,43.78
2023-04-13T03:11:32.085Z,43.41
2023-04-13T03:13:34.844Z,43.28
2023-04-13T03:15:37.743Z,43.19
2023-04-13T03:17:41.695Z,44.06
2023-04-13T03:19:47.604Z,46.48
2023-04-13T03:21:50.357Z,47.95
2023-04-13T03:23:53.058Z,48.58
2023-04-13T03:25:55.841Z,48.56
2023-04-13T03:27:58.629Z,49.27
2023-04-13T03:30:01.250Z,49.62
2023-04-13T03:32:04.800Z,50.08
2023-04-13T03:34:07.632Z,49.69
2023-04-13T03:36:11.262Z,50.09
2023-04-13T03:38:13.960Z,50.26
2023-04-13T03:40:16.677Z,50.53
2023-04-13T03:42:19.673Z,51.16
2023-04-13T03:44:32.628Z,51.11
2023-04-13T03:46:38.447Z,50.96
2023-04-13T03:48:42.294Z,50.95
2023-04-13T03:50:45.046Z,50.63
2023-04-13T03:52:48.072Z,49.74
2023-04-13T03:54:50.991Z,49.87
2023-04-13T03:56:53.932Z,49.83
2023-04-13T03:58:57.284Z,49.70
2023-04-13T04:01:00.010Z,48.12
2023-04-13T04:03:03.738Z,45.50
2023-04-13T04:05:07.018Z,44.70
2023-04-13T04:07:10.242Z,44.04
2023-04-13T04:09:12.966Z,43.77
2023-04-13T04:11:16.995Z,42.95
2023-04-13T04:13:19.688Z,43.64
2023-04-13T04:15:22.617Z,42.66
2023-04-13T04:17:25.634Z,41.82
2023-04-13T04:19:28.337Z,42.31
2023-04-13T04:21:34.472Z,42.24
2023-04-13T04:23:38.578Z,41.33
2023-04-13T04:25:42.898Z,42.35
2023-04-13T04:27:47.128Z,43.74
2023-04-13T04:29:51.114Z,44.45
2023-04-13T04:31:54.019Z,45.06
2023-04-13T04:33:57.006Z,44.29
2023-04-13T04:36:01.987Z,44.09
2023-04-13T04:38:05.513Z,44.81
2023-04-13T04:40:13.194Z,44.18
2023-04-13T04:42:18.989Z,41.97
2023-04-13T04:44:25.570Z,41.46
2023-04-13T04:46:29.891Z,40.33
2023-04-13T04:48:32.499Z,39.68
2023-04-13T04:50:35.187Z,40.26
2023-04-13T04:52:38.208Z,42.12
2023-04-13T04:54:40.974Z,41.40
2023-04-13T04:56:43.707Z,38.98
2023-04-13T04:58:46.543Z,37.98
2023-04-13T05:00:50.003Z,38.29
2023-04-13T05:02:53.123Z,38.58
2023-04-13T05:04:58.652Z,38.83
2023-04-13T05:07:02.700Z,39.71
2023-04-13T05:09:06.141Z,40.65
2023-04-13T05:11:09.054Z,40.82
2023-04-13T05:13:12.060Z,40.59
2023-04-13T05:15:14.842Z,40.17
2023-04-13T05:17:20.653Z,40.21
2023-04-13T05:19:23.457Z,39.75
2023-04-13T05:21:27.337Z,40.65
2023-04-13T05:23:29.945Z,40.34
2023-04-13T05:25:32.590Z,39.94
2023-04-13T05:27:35.445Z,38.36
2023-04-13T05:29:38.224Z,37.91
2023-04-13T05:31:41.043Z,36.24
2023-04-13T05:33:43.861Z,36.16
2023-04-13T05:35:46.528Z,36.12
2023-04-13T05:37:49.390Z,36.31
2023-04-13T05:39:52.175Z,35.97
2023-04-13T05:41:54.782Z,35.05
2023-04-13T05:43:57.506Z,35.37
2023-04-13T05:46:00.284Z,34.96
2023-04-13T05:48:04.906Z,35.13
2023-04-13T05:50:08.635Z,34.79
2023-04-13T05:52:11.227Z,34.78
2023-04-13T05:54:14.342Z,34.03
2023-04-13T05:56:17.161Z,33.77
2023-04-13T05:58:20.371Z,33.88
2023-04-13T06:00:23.268Z,34.24
2023-04-13T06:02:29.500Z,33.13
2023-04-13T06:04:32.551Z,33.31
2023-04-13T06:06:36.200Z,33.32
2023-04-13T06:08:40.420Z,33.47
2023-04-13T06:10:44.895Z,33.85
2023-04-13T06:12:48.940Z,33.50
2023-04-13T06:14:52.202Z,33.39
2023-04-13T06:16:55.104Z,33.47
2023-04-13T06:18:59.496Z,33.62
2023-04-13T06:21:02.808Z,32.82
2023-04-13T06:23:05.504Z,33.34
2023-04-13T06:25:08.741Z,33.28
2023-04-13T06:27:11.829Z,33.44
2023-04-13T06:29:14.598Z,33.19
2023-04-13T06:31:17.814Z,32.65
2023-04-13T06:33:20.733Z,33.26
2023-04-13T06:35:23.682Z,33.81
2023-04-13T06:37:26.479Z,33.76
2023-04-13T06:39:29.799Z,34.25
2023-04-13T06:41:33.982Z,34.36
2023-04-13T06:43:37.546Z,34.03
2023-04-13T06:45:40.408Z,34.12
2023-04-13T06:47:43.284Z,34.33
2023-04-13T06:49:46.144Z,33.82
2023-04-13T06:51:48.875Z,33.62
2023-04-13T06:53:53.740Z,33.95
2023-04-13T06:55:56.575Z,33.52
2023-04-13T06:57:59.248Z,33.65
2023-04-13T07:00:02.246Z,33.93
2023-04-13T07:02:07.093Z,34.39
2023-04-13T07:04:10.098Z,33.89
2023-04-13T07:06:12.953Z,34.27
2023-04-13T07:08:16.094Z,34.44
2023-04-13T07:10:18.758Z,33.76
2023-04-13T07:12:21.971Z,33.26
2023-04-13T07:14:24.809Z,33.72
2023-04-13T07:16:27.785Z,33.30
2023-04-13T07:18:31.955Z,32.64
2023-04-13T07:20:35.907Z,33.11
2023-04-13T07:22:38.586Z,32.59
2023-04-13T07:24:41.546Z,32.59
2023-04-13T07:26:44.485Z,32.29
2023-04-13T07:28:47.291Z,31.71
2023-04-13T07:30:50.052Z,31.27
2023-04-13T07:32:53.085Z,30.66
2023-04-13T07:35:02.135Z,30.49
2023-04-13T07:37:06.399Z,29.65
2023-04-13T07:39:09.991Z,30.55
2023-04-13T07:41:12.949Z,29.85
2023-04-13T07:43:15.810Z,29.49
2023-04-13T07:45:20.256Z,29.15
2023-04-13T07:47:23.009Z,29.21
2023-04-13T07:49:25.853Z,29.22
2023-04-13T07:51:28.645Z,28.81
2023-04-13T07:53:31.352Z,29.28
2023-04-13T07:55:34.193Z,28.85
2023-04-13T07:57:36.904Z,28.55
2023-04-13T07:59:39.597Z,28.58
2023-04-13T08:01:42.359Z,28.89
2023-04-13T08:03:45.211Z,28.38
2023-04-13T08:05:47.988Z,27.96
2023-04-13T08:07:50.809Z,28.27
2023-04-13T08:09:53.908Z,28.49
2023-04-13T08:11:56.541Z,28.50
2023-04-13T08:13:59.148Z,28.42
2023-04-13T08:16:01.901Z,28.71
2023-04-13T08:18:04.613Z,28.74
2023-04-13T08:20:10.860Z,28.34
2023-04-13T08:22:13.514Z,27.59
2023-04-13T08:24:16.231Z,27.74
2023-04-13T08:26:20.684Z,27.75
2023-04-13T08:28:23.424Z,27.61
2023-04-13T08:30:26.164Z,27.58
2023-04-13T08:32:28.981Z,27.03
2023-04-13T08:34:31.818Z,27.45
2023-04-13T08:36:34.512Z,27.22
2023-04-13T08:38:37.240Z,27.13
2023-04-13T08:40:40.960Z,26.87
2023-04-13T08:42:43.860Z,27.07
2023-04-13T08:44:47.226Z,27.35
2023-04-13T08:46:52.565Z,27.45
2023-04-13T08:48:59.260Z,27.22
2023-04-13T08:51:05.646Z,26.89
2023-04-13T08:53:08.537Z,26.82
2023-04-13T08:55:12.899Z,27.26
2023-04-13T08:57:16.845Z,26.83
2023-04-13T08:59:21.561Z,27.19
2023-04-13T09:01:25.082Z,27.10
2023-04-13T09:03:34.262Z,26.31
2023-04-13T09:05:41.528Z,26.41
2023-04-13T09:07:53.953Z,26.08
2023-04-13T09:10:01.290Z,25.74
2023-04-13T09:12:04.421Z,26.05
2023-04-13T09:14:07.249Z,26.05
2023-04-13T09:16:09.983Z,24.37
2023-04-13T09:18:12.834Z,24.62
2023-04-13T09:20:23.603Z,25.46
2023-04-13T09:22:29.544Z,25.04
2023-04-13T09:24:42.644Z,24.18
2023-04-13T09:26:49.128Z,24.08
2023-04-13T09:28:56.094Z,24.20
2023-04-13T09:31:05.803Z,23.35
2023-04-13T09:33:10.748Z,23.82
2023-04-13T09:35:13.543Z,24.27
2023-04-13T09:37:16.172Z,23.82
2023-04-13T09:39:28.473Z,23.77
2023-04-13T09:41:36.734Z,23.78
2023-04-13T09:43:40.444Z,23.50
2023-04-13T09:45:46.678Z,24.48
2023-04-13T09:47:49.653Z,23.74
2023-04-13T09:49:53.214Z,24.50
2023-04-13T09:51:56.424Z,24.44
2023-04-13T09:53:59.251Z,24.06
2023-04-13T09:56:02.333Z,23.86
2023-04-13T09:58:14.871Z,23.61
2023-04-13T10:00:21.831Z,23.48
2023-04-13T10:02:25.112Z,24.46
2023-04-13T10:04:28.460Z,23.93
2023-04-13T10:06:32.297Z,24.21
2023-04-13T10:08:38.852Z,23.68
2023-04-13T10:10:42.379Z,23.35
2023-04-13T10:12:55.085Z,23.65
2023-04-13T10:15:10.778Z,24.29
2023-04-13T10:17:43.029Z,24.32
2023-04-13T10:19:48.981Z,24.21
2023-04-13T10:21:53.284Z,24.06
2023-04-13T10:23:57.071Z,23.87
2023-04-13T10:26:03.716Z,23.78
2023-04-13T10:28:06.988Z,23.30
2023-04-13T10:30:17.280Z,23.36
2023-04-13T10:32:22.511Z,23.30
2023-04-13T10:34:31.820Z,24.04
2023-04-13T10:36:47.023Z,23.54
2023-04-13T10:38:49.793Z,23.36
2023-04-13T10:40:52.659Z,23.47
2023-04-13T10:42:55.334Z,23.40
2023-04-13T10:44:58.165Z,23.61
2023-04-13T10:47:05.890Z,23.40
2023-04-13T10:49:09.315Z,23.23
2023-04-13T10:51:11.958Z,23.55
2023-04-13T10:53:26.681Z,22.65
2023-04-13T10:55:30.231Z,22.93
2023-04-13T10:57:35.286Z,23.18
2023-04-13T10:59:57.889Z,23.02
2023-04-13T11:02:07.179Z,22.97
2023-04-13T11:04:15.227Z,23.94
2023-04-13T11:06:20.266Z,23.41
2023-04-13T11:08:23.074Z,23.43
2023-04-13T11:10:30.072Z,23.15
2023-04-13T11:12:32.829Z,22.90
2023-04-13T11:14:39.014Z,22.75
2023-04-13T11:16:46.204Z,22.24
2023-04-13T11:18:48.947Z,23.24
2023-04-13T11:20:51.786Z,22.38
2023-04-13T11:22:57.657Z,21.72
2023-04-13T11:25:08.755Z,22.16
2023-04-13T11:27:23.383Z,21.38
2023-04-13T11:29:27.509Z,21.81
2023-04-13T11:31:40.719Z,22.29
2023-04-13T11:33:44.684Z,21.89
2023-04-13T11:35:50.316Z,21.36
2023-04-13T11:37:56.818Z,22.10
2023-04-13T11:40:09.123Z,22.88
2023-04-13T11:42:14.300Z,23.02
2023-04-13T11:44:17.439Z,23.04
2023-04-13T11:46:26.782Z,22.98
2023-04-13T11:48:29.702Z,23.80
2023-04-13T11:50:33.990Z,24.11
2023-04-13T11:52:38.590Z,24.04
2023-04-13T11:54:43.081Z,24.22
2023-04-13T11:56:48.802Z,24.30
2023-04-13T11:58:53.419Z,24.45
2023-04-13T12:01:03.279Z,24.29
2023-04-13T12:03:34.638Z,24.33
2023-04-13T12:05:39.559Z,24.36
2023-04-13T12:07:43.079Z,24.31
2023-04-13T12:12:25.049Z,23.59
2023-04-13T12:18:49.851Z,24.01
2023-04-13T12:20:53.563Z,23.47
2023-04-13T12:23:05.813Z,23.11
2023-04-13T12:25:19.841Z,22.59
2023-04-13T12:27:25.329Z,22.80
2023-04-13T12:29:28.149Z,22.87
2023-04-13T12:31:38.097Z,22.99
2023-04-13T12:33:41.002Z,22.98
2023-04-13T12:35:43.968Z,22.80
2023-04-13T12:37:48.728Z,23.09
2023-04-13T12:39:51.535Z,23.17
2023-04-13T12:41:54.487Z,22.52
2023-04-13T12:43:57.196Z,22.66
2023-04-13T12:45:59.871Z,22.23
2023-04-13T12:48:02.538Z,22.69
2023-04-13T12:50:06.492Z,22.42
2023-04-13T12:52:09.148Z,22.38
2023-04-13T12:54:13.663Z,22.39
2023-04-13T12:56:16.500Z,23.21
2023-04-13T12:58:19.222Z,22.31
2023-04-13T13:00:22.361Z,21.90
2023-04-13T13:02:28.042Z,22.14
2023-04-13T13:04:31.009Z,22.41
2023-04-13T13:06:34.507Z,21.96
2023-04-13T13:08:40.433Z,21.90
2023-04-13T13:10:43.494Z,21.91
2023-04-13T13:12:46.946Z,21.36
2023-04-13T13:14:49.708Z,21.52
2023-04-13T13:16:53.246Z,21.60
2023-04-13T13:18:56.070Z,21.53
2023-04-13T13:20:58.763Z,21.58
2023-04-13T13:23:01.433Z,21.89
2023-04-13T13:25:08.721Z,21.78
2023-04-13T13:27:48.676Z,21.72
2023-04-13T13:29:37.125Z,22.07
2023-04-13T13:31:41.570Z,21.88
2023-04-13T13:33:44.294Z,21.79
2023-04-13T13:35:47.124Z,22.67
2023-04-13T13:37:49.720Z,22.11
2023-04-13T13:39:52.487Z,21.51
2023-04-13T13:41:56.649Z,21.30
2023-04-13T13:43:59.420Z,21.66
2023-04-13T13:46:02.293Z,21.32
2023-04-13T13:48:05.254Z,21.54
2023-04-13T13:50:08.878Z,21.47
2023-04-13T13:52:11.604Z,21.76
2023-04-13T13:54:14.483Z,21.79
2023-04-13T13:56:17.651Z,21.55
2023-04-13T13:58:20.812Z,21.89
2023-04-13T14:00:23.678Z,21.94
2023-04-13T14:02:26.531Z,21.82
2023-04-13T14:04:29.340Z,21.69
2023-04-13T14:06:32.829Z,22.15
2023-04-13T14:08:35.746Z,22.32
2023-04-13T14:10:39.392Z,23.60
2023-04-13T14:12:46.913Z,22.74
2023-04-13T14:14:51.544Z,23.04
2023-04-13T14:16:54.430Z,22.52
2023-04-13T14:18:57.580Z,23.10
2023-04-13T14:21:00.928Z,23.59
2023-04-13T14:23:03.968Z,23.72
2023-04-13T14:25:09.237Z,24.29
2023-04-13T14:27:12.427Z,24.13
2023-04-13T14:29:15.496Z,23.40
2023-04-13T14:31:18.284Z,24.26
2023-04-13T14:33:21.261Z,24.19
2023-04-13T14:35:24.301Z,24.74
2023-04-13T14:37:28.198Z,24.19
2023-04-13T14:39:31.293Z,24.30
2023-04-13T14:41:34.088Z,24.96
2023-04-13T14:43:36.807Z,24.20
2023-04-13T14:45:40.328Z,24.44
2023-04-13T14:47:43.125Z,24.87
2023-04-13T14:49:46.496Z,25.25
2023-04-13T14:51:49.511Z,25.49
2023-04-13T14:53:56.433Z,26.06
2023-04-13T14:55:59.441Z,26.41
2023-04-13T14:58:03.570Z,26.85
2023-04-13T15:00:21.688Z,27.14
2023-04-13T15:02:27.709Z,27.74
2023-04-13T15:04:31.562Z,28.21
2023-04-13T15:06:36.364Z,28.49
2023-04-13T15:08:40.154Z,28.59
2023-04-13T15:10:43.409Z,29.20
2023-04-13T15:12:48.721Z,29.62
2023-04-13T15:14:51.601Z,30.68
2023-04-13T15:16:54.282Z,30.87
2023-04-13T15:18:58.627Z,31.60
2023-04-13T15:21:05.066Z,31.81
2023-04-13T15:23:07.804Z,32.44
2023-04-13T15:25:10.635Z,32.51
2023-04-13T15:27:13.782Z,33.21
2023-04-13T15:29:16.469Z,33.61
2023-04-13T15:31:19.201Z,33.62
2023-04-13T15:33:22.431Z,33.47
2023-04-13T15:35:27.188Z,34.19
2023-04-13T15:37:30.176Z,34.38
2023-04-13T15:39:32.916Z,34.44
2023-04-13T15:41:35.645Z,34.49
2023-04-13T15:43:38.609Z,34.56
2023-04-13T15:45:41.815Z,35.00
2023-04-13T15:47:45.166Z,34.87
2023-04-13T15:49:47.789Z,34.93
2023-04-13T15:51:50.914Z,35.07
2023-04-13T15:53:54.712Z,35.93
2023-04-13T15:55:57.887Z,35.38
2023-04-13T15:58:00.562Z,35.58
2023-04-13T16:00:05.166Z,36.19
2023-04-13T16:02:08.163Z,35.96
2023-04-13T16:04:11.560Z,35.91
2023-04-13T16:06:14.408Z,36.12
2023-04-13T16:08:20.019Z,36.29
2023-04-13T16:10:22.859Z,36.41
2023-04-13T16:12:32.239Z,35.99
2023-04-13T16:14:45.452Z,36.05
2023-04-13T16:16:53.208Z,36.19
2023-04-13T16:18:55.923Z,36.54
2023-04-13T16:20:59.720Z,36.78
2023-04-13T16:23:05.068Z,36.51
2023-04-13T16:25:11.862Z,36.40
2023-04-13T16:27:15.746Z,36.76
2023-04-13T16:29:18.558Z,37.07
2023-04-13T16:31:21.589Z,36.53
2023-04-13T16:33:24.341Z,36.86
2023-04-13T16:35:27.096Z,37.04
2023-04-13T16:37:29.779Z,37.39
2023-04-13T16:39:32.965Z,37.99
2023-04-13T16:41:36.132Z,37.80
2023-04-13T16:43:38.876Z,38.10
2023-04-13T16:45:42.299Z,38.22
2023-04-13T16:47:45.090Z,38.89
2023-04-13T16:49:47.825Z,39.21
2023-04-13T16:51:50.696Z,39.46
2023-04-13T16:53:54.394Z,39.15
2023-04-13T16:55:57.473Z,39.52
2023-04-13T16:58:00.097Z,39.90
2023-04-13T17:00:10.990Z,40.22
2023-04-13T17:02:30.250Z,40.15
2023-04-13T17:04:34.158Z,40.97
2023-04-13T17:06:38.393Z,41.43
2023-04-13T17:08:41.231Z,41.36
2023-04-13T17:10:44.167Z,42.03
2023-04-13T17:12:48.311Z,42.12
2023-04-13T17:14:51.029Z,42.59
2023-04-13T17:16:54.227Z,42.92
2023-04-13T17:18:57.342Z,43.28
2023-04-13T17:21:00.292Z,43.58
2023-04-13T17:23:03.215Z,43.72
2023-04-13T17:25:07.030Z,44.15
2023-04-13T17:27:09.728Z,44.09
2023-04-13T17:29:12.562Z,44.50
2023-04-13T17:31:15.352Z,44.57
2023-04-13T17:33:18.305Z,44.91
2023-04-13T17:35:21.022Z,45.15
2023-04-13T17:37:24.400Z,45.28
2023-04-13T17:39:27.792Z,46.28
2023-04-13T17:41:31.442Z,46.25
2023-04-13T17:43:34.215Z,46.23
2023-04-13T17:45:39.171Z,46.79
2023-04-13T17:47:43.452Z,46.94
2023-04-13T17:49:46.341Z,47.35
2023-04-13T17:51:50.170Z,47.33
2023-04-13T17:53:53.060Z,47.44
2023-04-13T17:55:56.055Z,48.26
2023-04-13T17:57:58.912Z,48.24
2023-04-13T18:00:02.251Z,48.69
2023-04-13T18:02:06.978Z,48.38
2023-04-13T18:04:14.527Z,49.24
2023-04-13T18:06:17.358Z,49.25
2023-04-13T18:08:20.062Z,50.01
2023-04-13T18:10:22.780Z,50.08
2023-04-13T18:12:25.620Z,49.82
2023-04-13T18:14:28.559Z,50.04
2023-04-13T18:16:32.128Z,50.62
2023-04-13T18:18:35.040Z,51.02
2023-04-13T18:20:37.852Z,51.12
2023-04-13T18:22:40.945Z,50.86
2023-04-13T18:24:44.411Z,51.33
2023-04-13T18:26:47.430Z,51.63
2023-04-13T18:28:50.272Z,51.56
2023-04-13T18:30:53.024Z,51.85
2023-04-13T18:32:55.737Z,52.18
2023-04-13T18:34:58.477Z,52.42
2023-04-13T18:37:01.160Z,52.35
2023-04-13T18:39:04.465Z,53.22
2023-04-13T18:41:07.194Z,53.18
2023-04-13T18:43:09.937Z,53.59
2023-04-13T18:45:13.207Z,53.72
2023-04-13T18:47:15.853Z,53.55
2023-04-13T18:49:18.642Z,54.40
2023-04-13T18:51:21.530Z,54.54
2023-04-13T18:53:24.207Z,54.81
2023-04-13T18:55:28.739Z,55.67
2023-04-13T18:57:31.419Z,55.79
2023-04-13T18:59:34.217Z,55.46
2023-04-13T19:01:37.262Z,56.19
2023-04-13T19:03:40.073Z,56.44
2023-04-13T19:05:43.997Z,55.85
2023-04-13T19:07:58.944Z,56.75
2023-04-13T19:10:01.771Z,56.82
2023-04-13T19:12:06.834Z,56.81
2023-04-13T19:14:10.060Z,56.99
2023-04-13T19:16:14.134Z,57.08
2023-04-13T19:18:16.754Z,57.71
2023-04-13T19:20:22.970Z,58.02
2023-04-13T19:22:26.789Z,58.15
2023-04-13T19:24:29.494Z,58.78
2023-04-13T19:26:32.313Z,58.37
2023-04-13T19:28:35.094Z,58.85
2023-04-13T19:30:37.892Z,58.83
2023-04-13T19:32:43.370Z,59.50
2023-04-13T19:34:46.117Z,59.75
2023-04-13T19:36:48.868Z,59.80
2023-04-13T19:38:52.197Z,60.14
2023-04-13T19:40:54.891Z,60.05
2023-04-13T19:42:58.081Z,60.60
2023-04-13T19:45:00.859Z,60.56
2023-04-13T19:47:03.883Z,61.36
2023-04-13T19:49:07.125Z,61.21
2023-04-13T19:51:09.937Z,61.42
2023-04-13T19:53:13.266Z,61.65
2023-04-13T19:55:16.178Z,62.14
2023-04-13T19:57:19.157Z,62.05
2023-04-13T19:59:22.011Z,62.33
2023-04-13T20:01:26.825Z,63.06
2023-04-13T20:03:32.926Z,62.50
2023-04-13T20:05:39.363Z,63.40
2023-04-13T20:07:42.625Z,63.60
2023-04-13T20:09:45.645Z,63.80
2023-04-13T20:11:48.504Z,63.74
2023-04-13T20:13:51.713Z,63.50
2023-04-13T20:15:54.471Z,64.25
2023-04-13T20:17:57.886Z,63.55
2023-04-13T20:20:00.757Z,64.57
2023-04-13T20:22:04.735Z,64.19
2023-04-13T20:24:08.466Z,64.38
2023-04-13T20:26:11.118Z,64.83
2023-04-13T20:28:13.998Z,64.84
2023-04-13T20:30:16.787Z,65.52
2023-04-13T20:32:19.545Z,64.99
2023-04-13T20:34:24.322Z,65.33
2023-04-13T20:36:27.199Z,65.48
2023-04-13T20:38:30.269Z,64.86
2023-04-13T20:40:36.400Z,65.39
2023-04-13T20:42:45.545Z,65.24
2023-04-13T20:44:49.293Z,66.18
2023-04-13T20:46:55.513Z,65.83
2023-04-13T20:48:59.858Z,66.45
2023-04-13T20:51:02.543Z,66.37
2023-04-13T20:53:05.529Z,66.63
2023-04-13T20:55:12.067Z,66.13
2023-04-13T20:57:17.210Z,66.41
2023-04-13T20:59:19.899Z,66.60
2023-04-13T21:01:25.512Z,67.25
2023-04-13T21:03:31.179Z,67.05
2023-04-13T21:05:34.135Z,67.12
2023-04-13T21:07:38.278Z,66.76
2023-04-13T21:09:41.631Z,66.36
2023-04-13T21:11:47.518Z,66.02
2023-04-13T21:13:50.176Z,66.57
2023-04-13T21:15:52.819Z,66.46
2023-04-13T21:17:55.568Z,66.17
2023-04-13T21:19:58.405Z,66.21
2023-04-13T21:22:01.213Z,66.06
2023-04-13T21:24:04.071Z,66.23
2023-04-13T21:26:07.419Z,65.59
2023-04-13T21:28:10.330Z,65.18
2023-04-13T21:30:13.998Z,65.36
2023-04-13T21:32:16.964Z,66.18
2023-04-13T21:34:19.917Z,65.64
2023-04-13T21:38:28.371Z,65.49
2023-04-13T21:40:31.235Z,66.22
2023-04-13T21:42:33.868Z,66.71
2023-04-13T21:44:36.589Z,66.30
2023-04-13T21:46:39.243Z,66.54
2023-04-13T21:48:42.233Z,66.53
2023-04-13T21:50:45.026Z,65.69
2023-04-13T21:52:48.014Z,65.83
2023-04-13T21:54:51.753Z,65.63
2023-04-13T21:56:54.601Z,65.73
2023-04-13T21:58:57.264Z,65.11
2023-04-13T22:00:59.963Z,64.89
2023-04-13T22:03:03.056Z,65.04
2023-04-13T22:05:06.820Z,65.25
2023-04-13T22:07:09.547Z,64.31
2023-04-13T22:09:15.066Z,64.30
2023-04-13T22:11:17.758Z,64.27
2023-04-13T22:13:20.534Z,65.03
2023-04-13T22:15:23.315Z,63.64
2023-04-13T22:17:26.104Z,63.34
2023-04-13T22:19:28.817Z,63.77
2023-04-13T22:21:33.921Z,63.43
2023-04-13T22:23:36.621Z,63.81
2023-04-13T22:25:39.375Z,63.73
2023-04-13T22:27:42.241Z,61.66
2023-04-13T22:29:44.926Z,61.79
2023-04-13T22:31:47.845Z,61.13
2023-04-13T22:33:51.910Z,61.03
2023-04-13T22:35:55.231Z,60.82
2023-04-13T22:37:57.959Z,60.69
2023-04-13T22:40:01.519Z,60.52
2023-04-13T22:42:05.927Z,60.14
2023-04-13T22:44:08.658Z,59.58
2023-04-13T22:46:11.504Z,59.71
2023-04-13T22:48:14.159Z,59.80
2023-04-13T22:50:16.946Z,60.16
2023-04-13T22:52:19.880Z,59.09
2023-04-13T22:54:23.337Z,58.96
2023-04-13T22:56:26.187Z,58.76
2023-04-13T22:58:28.862Z,59.26
2023-04-13T23:00:31.927Z,58.43
2023-04-13T23:02:34.819Z,58.86
2023-04-13T23:04:38.086Z,59.20
2023-04-13T23:06:40.949Z,58.50
2023-04-13T23:08:43.654Z,59.05
2023-04-13T23:10:46.688Z,58.83
2023-04-13T23:12:49.386Z,58.96
2023-04-13T23:14:52.656Z,58.42
2023-04-13T23:16:55.654Z,58.20
2023-04-13T23:18:58.767Z,58.09
2023-04-13T23:21:10.383Z,58.42
2023-04-13T23:23:13.050Z,58.32
2023-04-13T23:25:16.473Z,58.05
2023-04-13T23:27:19.138Z,57.40
2023-04-13T23:29:22.477Z,57.36
2023-04-13T23:31:25.367Z,56.53
2023-04-13T23:33:28.090Z,56.83
2023-04-13T23:35:30.988Z,56.78
2023-04-13T23:37:33.742Z,56.56
2023-04-13T23:39:37.670Z,56.37
2023-04-13T23:41:40.503Z,56.43
2023-04-13T23:43:43.239Z,56.56
2023-04-13T23:45:46.509Z,56.03
2023-04-13T23:47:49.222Z,55.76
2023-04-13T23:49:54.322Z,55.91
2023-04-13T23:51:56.927Z,56.08
2023-04-13T23:53:59.775Z,56.19
2023-04-13T23:56:02.638Z,55.81
2023-04-13T23:58:05.442Z,55.51
